Time;durP1;ratioP1;P1;durP2;ratioP2;P2;SDS_P1;SDS_P2;PMS_P1;PMS_P2;Temp;Humidity;BMP_temperature;BMP_pressure;BME280_temperature;BME280_humidity;BME280_pressure;Samples;Min_cycle;Max_cycle;Signal;HPM_P1;HPM_P2
2023/05/24 00:02:15;;;;;;;9.13;2.83;;;;;;;-142.75;100.00;78271.41;5026876;28;20064;-63
2023/05/24 00:04:40;;;;;;;10.27;2.10;;;;;;;-142.75;100.00;78283.22;5026880;28;20032;-63
2023/05/24 00:07:06;;;;;;;8.67;1.87;;;;;;;-142.75;100.00;78275.34;5026899;28;20037;-64
2023/05/24 00:09:32;;;;;;;9.00;2.40;;;;;;;-142.75;100.00;78271.41;5026536;28;20029;-63
2023/05/24 00:11:57;;;;;;;9.20;2.17;;;;;;;-142.75;100.00;78245.81;5026557;28;20052;-63
2023/05/24 00:14:23;;;;;;;11.47;2.20;;;;;;;-142.75;100.00;78251.72;5026094;28;20056;-63
2023/05/24 00:16:48;;;;;;;7.13;1.77;;;;;;;-142.75;100.00;78247.78;5026375;28;20053;-63
2023/05/24 00:19:17;;;;;;;5.73;1.90;;;;;;;-142.75;100.00;78234.00;5026291;28;20402;-64
2023/05/24 00:21:46;;;;;;;9.40;2.23;;;;;;;-142.75;100.00;78222.19;5026327;28;20037;-63
2023/05/24 00:24:12;;;;;;;12.37;2.70;;;;;;;-142.75;100.00;78204.47;5026603;28;20029;-63
2023/05/24 00:26:38;;;;;;;15.10;2.30;;;;;;;-142.75;100.00;78196.59;5026777;28;20505;-64
2023/05/24 00:29:03;;;;;;;4.68;2.03;;;;;;;-142.75;100.00;78214.31;5026872;28;20480;-63
2023/05/24 00:31:29;;;;;;;10.20;3.00;;;;;;;-142.75;100.00;78212.34;5025315;28;20084;-64
2023/05/24 00:33:54;;;;;;;7.00;2.40;;;;;;;-142.75;100.00;78212.34;5026278;28;20053;-63
2023/05/24 00:36:20;;;;;;;7.33;2.23;;;;;;;-142.75;100.00;78208.41;5008538;28;20083;-63
2023/05/24 00:38:45;;;;;;;13.17;2.30;;;;;;;-142.75;100.00;78206.44;5025836;28;20021;-64
2023/05/24 00:41:11;;;;;;;8.63;2.17;;;;;;;-142.75;100.00;78212.34;5025888;28;20057;-63
2023/05/24 00:43:36;;;;;;;9.67;2.47;;;;;;;-142.75;100.00;78210.38;5008679;28;20044;-63
2023/05/24 00:46:21;;;;;;;11.07;2.23;;;;;;;-142.75;100.00;78208.41;5026303;28;20041;-63
2023/05/24 00:48:47;;;;;;;10.87;3.07;;;;;;;-142.75;100.00;78202.50;5025610;28;20022;-64
2023/05/24 00:51:13;;;;;;;14.60;2.23;;;;;;;-142.75;100.00;78202.50;5025767;28;20409;-64
2023/05/24 00:53:40;;;;;;;6.60;2.47;;;;;;;-142.75;100.00;78194.63;5026121;28;20026;-63
2023/05/24 00:56:07;;;;;;;10.90;2.23;;;;;;;-142.75;100.00;78212.34;5025940;28;20108;-63
2023/05/24 00:58:32;;;;;;;9.70;2.33;;;;;;;-142.75;100.00;78220.22;5026564;28;20044;-63
2023/05/24 01:00:59;;;;;;;4.93;2.00;;;;;;;-142.75;100.00;78220.22;5025375;28;20553;-63
2023/05/24 01:03:29;;;;;;;8.47;2.07;;;;;;;-142.75;100.00;78247.78;5025652;28;20040;-62
2023/05/24 01:06:03;;;;;;;12.80;2.10;;;;;;;-142.75;100.00;78241.88;5025738;28;20061;-62
2023/05/24 01:08:37;;;;;;;8.70;2.00;;;;;;;-142.75;100.00;78224.16;5025756;28;20026;-63
2023/05/24 01:11:29;;;;;;;8.07;2.10;;;;;;;-142.75;100.00;78232.03;5025531;28;20379;-64
2023/05/24 01:14:13;;;;;;;7.30;2.10;;;;;;;-142.75;100.00;78235.97;4974873;28;20391;-63
2023/05/24 01:17:08;;;;;;;8.97;2.53;;;;;;;-142.75;100.00;78239.91;5025943;28;20060;-63
2023/05/24 01:19:47;;;;;;;7.80;2.23;;;;;;;-142.75;100.00;78228.09;5024105;28;20562;-63
2023/05/24 01:22:41;;;;;;;8.60;2.47;;;;;;;-142.75;100.00;78253.69;5024606;28;20119;-63
2023/05/24 01:25:15;;;;;;;7.20;1.90;;;;;;;-142.75;100.00;78253.69;5023960;28;20490;-63
2023/05/24 01:27:42;;;;;;;5.47;1.77;;;;;;;-142.75;100.00;78241.88;5026362;28;20044;-63
2023/05/24 01:30:08;;;;;;;10.13;2.40;;;;;;;-142.75;100.00;78267.47;5024186;28;20112;-63
2023/05/24 01:32:34;;;;;;;8.43;2.27;;;;;;;-142.75;100.00;78267.47;5025396;28;20037;-63
2023/05/24 01:35:00;;;;;;;9.00;2.07;;;;;;;-142.75;100.00;78259.59;5025407;28;20059;-63
2023/05/24 01:37:25;;;;;;;10.77;2.60;;;;;;;-142.75;100.00;78247.78;5025407;28;20025;-62
2023/05/24 01:39:51;;;;;;;13.30;2.60;;;;;;;-142.75;100.00;78237.94;5024699;28;20025;-63
2023/05/24 01:42:25;;;;;;;7.40;2.20;;;;;;;-142.75;100.00;78232.03;5025553;28;20497;-63
2023/05/24 01:44:56;;;;;;;9.07;2.27;;;;;;;-142.75;100.00;78232.03;5025417;28;20087;-63
2023/05/24 01:47:43;;;;;;;4.97;2.23;;;;;;;-142.75;100.00;78247.78;5025740;28;20063;-63
2023/05/24 01:50:20;;;;;;;4.60;1.70;;;;;;;-142.75;100.00;78255.66;5024495;28;20029;-64
2023/05/24 01:52:48;;;;;;;8.03;2.30;;;;;;;-142.75;100.00;78279.28;5025395;28;20035;-63
2023/05/24 01:55:16;;;;;;;6.03;1.60;;;;;;;-142.75;100.00;78291.09;5025173;28;20025;-63
2023/05/24 01:57:44;;;;;;;5.60;1.60;;;;;;;-142.75;100.00;78279.28;5025421;28;20068;-63
2023/05/24 02:00:11;;;;;;;4.80;2.00;;;;;;;-142.75;100.00;78326.56;5023279;28;20021;-63
2023/05/24 02:02:37;;;;;;;5.40;2.00;;;;;;;-142.75;100.00;78310.81;5025352;28;20025;-63
2023/05/24 02:05:03;;;;;;;9.60;1.73;;;;;;;-142.75;100.00;78322.63;5024985;28;20086;-63
2023/05/24 02:07:28;;;;;;;6.60;2.20;;;;;;;-142.75;100.00;78293.06;5025338;28;20026;-62
2023/05/24 02:09:53;;;;;;;12.33;2.33;;;;;;;-142.75;100.00;78277.31;5024755;28;20703;-63
2023/05/24 02:12:18;;;;;;;5.33;2.07;;;;;;;-142.75;100.00;78259.59;5025073;28;20067;-64
2023/05/24 02:14:44;;;;;;;5.90;2.50;;;;;;;-142.75;100.00;78245.81;5024703;28;20056;-63
2023/05/24 02:17:09;;;;;;;11.03;2.50;;;;;;;-142.75;100.00;78239.91;5025029;28;20405;-63
2023/05/24 02:19:35;;;;;;;11.10;2.50;;;;;;;-142.75;100.00;78239.91;5025060;28;20529;-62
2023/05/24 02:22:02;;;;;;;10.13;2.93;;;;;;;-142.75;100.00;78239.91;5025108;28;20394;-63
2023/05/24 02:24:27;;;;;;;8.40;2.53;;;;;;;-142.75;100.00;78239.91;5024960;28;20029;-63
2023/05/24 02:26:54;;;;;;;9.80;2.63;;;;;;;-142.75;100.00;78251.72;5024844;28;20179;-63
2023/05/24 02:29:20;;;;;;;14.23;2.93;;;;;;;-142.75;100.00;78234.00;5025014;28;20028;-63
2023/05/24 02:31:45;;;;;;;5.63;2.37;;;;;;;-142.75;100.00;78228.09;5024972;28;20410;-63
2023/05/24 02:34:11;;;;;;;13.43;2.87;;;;;;;-142.75;100.00;78226.13;5024971;28;20025;-63
2023/05/24 02:36:36;;;;;;;10.13;2.90;;;;;;;-142.75;100.00;78226.13;5026308;28;20025;-63
2023/05/24 02:39:03;;;;;;;11.23;2.60;;;;;;;-142.75;100.00;78216.28;5028038;28;20036;-64
2023/05/24 02:41:28;;;;;;;8.60;2.10;;;;;;;-142.75;100.00;78210.38;5026969;28;20037;-64
2023/05/24 02:43:53;;;;;;;8.30;2.87;;;;;;;-142.75;100.00;78234.00;5028248;28;20106;-63
2023/05/24 02:46:19;;;;;;;10.73;2.83;;;;;;;-142.75;100.00;78243.84;5028577;28;20147;-63
2023/05/24 02:48:44;;;;;;;8.43;2.20;;;;;;;-142.75;100.00;78218.25;5028546;28;20060;-64
2023/05/24 02:51:09;;;;;;;8.47;2.60;;;;;;;-142.75;100.00;78224.16;5026678;28;20478;-63
2023/05/24 02:53:35;;;;;;;11.57;2.50;;;;;;;-142.75;100.00;78228.09;5028487;28;20061;-62
2023/05/24 02:56:00;;;;;;;14.77;3.00;;;;;;;-142.75;100.00;78224.16;5027914;28;20495;-63
2023/05/24 02:58:27;;;;;;;10.13;3.10;;;;;;;-142.75;100.00;78224.16;5028680;28;20029;-63
2023/05/24 03:00:53;;;;;;;13.33;2.97;;;;;;;-142.75;100.00;78224.16;5027563;28;20026;-63
2023/05/24 03:03:18;;;;;;;8.43;2.33;;;;;;;-142.75;100.00;78220.22;5028597;28;20444;-63
2023/05/24 03:05:44;;;;;;;9.20;2.70;;;;;;;-142.75;100.00;78222.19;5027930;28;20025;-63
2023/05/24 03:08:09;;;;;;;14.77;3.23;;;;;;;-142.75;100.00;78228.09;5027817;28;20052;-64
2023/05/24 03:10:35;;;;;;;11.97;3.13;;;;;;;-142.75;100.00;78226.13;5027258;28;20025;-62
2023/05/24 03:13:00;;;;;;;13.80;3.00;;;;;;;-142.75;100.00;78234.00;5009983;28;20116;-63
2023/05/24 03:15:25;;;;;;;10.00;2.83;;;;;;;-142.75;100.00;78241.88;5027687;28;20040;-62
2023/05/24 03:17:51;;;;;;;11.77;3.03;;;;;;;-142.75;100.00;78237.94;5027891;28;20049;-62
2023/05/24 03:20:16;;;;;;;13.00;2.87;;;;;;;-142.75;100.00;78247.78;5027318;28;20029;-63
2023/05/24 03:22:42;;;;;;;9.87;2.73;;;;;;;-142.75;100.00;78241.88;5027570;28;20120;-64
2023/05/24 03:25:08;;;;;;;6.67;2.63;;;;;;;-142.75;100.00;78224.16;5026247;28;20465;-63
2023/05/24 03:27:34;;;;;;;10.77;2.83;;;;;;;-142.75;100.00;78218.25;5028064;28;20101;-63
2023/05/24 03:30:00;;;;;;;8.43;2.60;;;;;;;-142.75;100.00;78224.16;5027440;28;20021;-63
2023/05/24 03:32:26;;;;;;;11.03;3.00;;;;;;;-142.75;100.00;78234.00;5027597;28;20083;-62
2023/05/24 03:34:51;;;;;;;11.43;3.17;;;;;;;-142.75;100.00;78234.00;5027235;28;20486;-62
2023/05/24 03:37:17;;;;;;;11.30;2.90;;;;;;;-142.75;100.00;78230.06;5027624;28;20105;-63
2023/05/24 03:39:42;;;;;;;12.00;3.40;;;;;;;-142.75;100.00;78214.31;5026528;28;20025;-63
2023/05/24 03:42:07;;;;;;;8.20;2.30;;;;;;;-142.75;100.00;78202.50;5026945;28;20064;-63
2023/05/24 03:44:33;;;;;;;9.27;2.67;;;;;;;-142.75;100.00;78212.34;5027477;28;20033;-63
2023/05/24 03:46:58;;;;;;;8.33;2.87;;;;;;;-142.75;100.00;78234.00;5027103;28;20560;-63
2023/05/24 03:49:24;;;;;;;13.33;2.63;;;;;;;-142.75;100.00;78241.88;5026897;28;20029;-63
2023/05/24 03:51:49;;;;;;;7.83;2.37;;;;;;;-142.75;100.00;78253.69;5027234;28;20099;-63
2023/05/24 03:54:16;;;;;;;5.27;2.10;;;;;;;-142.75;100.00;78241.88;5026849;28;20048;-63
2023/05/24 03:56:42;;;;;;;9.33;2.37;;;;;;;-142.75;100.00;78235.97;5027088;28;20025;-63
2023/05/24 03:59:07;;;;;;;10.30;2.70;;;;;;;-142.75;100.00;78228.09;5026958;28;20032;-63
2023/05/24 04:01:32;;;;;;;5.77;2.20;;;;;;;-142.75;100.00;78214.31;5025562;28;20029;-63
2023/05/24 04:03:58;;;;;;;7.80;2.20;;;;;;;-142.75;100.00;78204.47;5026697;28;20061;-63
2023/05/24 04:06:27;;;;;;;9.30;2.97;;;;;;;-142.75;100.00;78230.06;5027156;28;20087;-63
2023/05/24 04:08:57;;;;;;;8.97;2.53;;;;;;;-142.75;100.00;78220.22;5026358;28;20029;-63
2023/05/24 04:11:22;;;;;;;7.40;2.40;;;;;;;-142.75;100.00;78198.56;5026806;28;20080;-63
2023/05/24 04:13:50;;;;;;;7.07;3.23;;;;;;;-142.75;100.00;78210.38;5026620;28;20033;-63
2023/05/24 04:16:15;;;;;;;9.50;2.57;;;;;;;-142.75;100.00;78204.47;5026471;28;20735;-63
2023/05/24 04:18:41;;;;;;;8.90;2.40;;;;;;;-142.75;100.00;78210.38;5026838;28;20116;-63
2023/05/24 04:21:06;;;;;;;10.73;2.73;;;;;;;-142.75;100.00;78220.22;5026132;28;20064;-62
2023/05/24 04:23:31;;;;;;;13.20;3.67;;;;;;;-142.75;100.00;78218.25;5026556;28;20522;-63
2023/05/24 04:25:57;;;;;;;13.60;3.00;;;;;;;-142.75;100.00;78196.59;5026401;28;20056;-62
2023/05/24 04:28:22;;;;;;;7.23;1.87;;;;;;;-142.75;100.00;78180.81;5027294;28;20086;-63
2023/05/24 04:30:47;;;;;;;11.63;2.53;;;;;;;-142.75;100.00;78165.06;5025831;28;20029;-63
2023/05/24 04:33:13;;;;;;;7.00;2.20;;;;;;;-142.75;100.00;78141.44;5026283;28;20026;-63
2023/05/24 04:35:40;;;;;;;6.47;2.10;;;;;;;-142.75;100.00;78149.31;5026236;28;20807;-63
2023/05/24 04:38:06;;;;;;;8.37;2.57;;;;;;;-142.75;100.00;78149.31;5025038;28;20037;-62
2023/05/24 04:40:31;;;;;;;11.07;2.83;;;;;;;-142.75;100.00;78115.84;5024539;28;20035;-63
2023/05/24 04:42:56;;;;;;;13.40;3.30;;;;;;;-142.75;100.00;78090.25;5025888;28;20040;-62
2023/05/24 04:45:22;;;;;;;11.67;3.57;;;;;;;-142.75;100.00;78056.78;5026317;28;20159;-63
2023/05/24 04:47:47;;;;;;;20.33;3.60;;;;;;;-142.75;100.00;78023.28;5026414;28;20044;-63
2023/05/24 04:50:12;;;;;;;18.30;3.63;;;;;;;-142.75;100.00;78013.44;5025658;28;20453;-63
2023/05/24 04:52:38;;;;;;;11.63;3.00;;;;;;;-142.75;100.00;77995.72;5025518;28;20573;-63
2023/05/24 04:55:03;;;;;;;14.63;3.67;;;;;;;-142.75;100.00;77978.00;5025941;28;20083;-63
2023/05/24 04:57:29;;;;;;;12.82;3.80;;;;;;;-142.75;100.00;77966.19;5008374;28;20033;-64
2023/05/24 04:59:54;;;;;;;14.95;3.40;;;;;;;-142.75;100.00;77930.75;5025600;28;20255;-64
2023/05/24 05:02:21;;;;;;;11.90;3.05;;;;;;;-142.75;100.00;77924.84;5025858;28;20033;-63
2023/05/24 05:04:46;;;;;;;11.52;3.20;;;;;;;-142.75;100.00;77899.22;5025947;28;20160;-64
2023/05/24 05:07:12;;;;;;;10.05;3.55;;;;;;;-142.75;100.00;77903.16;5024890;28;20492;-63
2023/05/24 05:09:37;;;;;;;13.50;3.97;;;;;;;-142.75;100.00;77883.47;5025499;28;20036;-64
2023/05/24 05:12:02;;;;;;;13.57;3.60;;;;;;;-142.75;100.00;77867.72;5025866;28;20505;-63
2023/05/24 05:14:28;;;;;;;13.23;2.97;;;;;;;-142.75;100.00;77869.69;5025786;28;20461;-64
2023/05/24 05:16:53;;;;;;;12.70;3.13;;;;;;;-142.75;100.00;77861.81;5025535;28;20104;-63
2023/05/24 05:19:21;;;;;;;12.50;3.47;;;;;;;-142.75;100.00;77846.06;5025285;28;20032;-63
2023/05/24 05:21:47;;;;;;;15.88;3.40;;;;;;;-142.75;100.00;77830.31;5025519;28;20034;-64
2023/05/24 05:24:14;;;;;;;11.95;2.72;;;;;;;-142.75;100.00;77830.31;5025362;28;20032;-64
2023/05/24 05:26:40;;;;;;;12.40;2.88;;;;;;;-142.75;100.00;77838.19;5008259;28;20520;-64
2023/05/24 05:29:05;;;;;;;12.88;3.15;;;;;;;-142.75;100.00;77826.38;5025754;28;20372;-62
2023/05/24 05:31:31;;;;;;;12.65;3.28;;;;;;;-142.75;100.00;77822.44;5025650;28;20075;-63
2023/05/24 05:33:56;;;;;;;18.42;4.05;;;;;;;-142.75;100.00;77806.69;5025416;28;20049;-62
2023/05/24 05:36:21;;;;;;;16.90;3.95;;;;;;;-142.75;100.00;77806.69;5024247;28;20029;-63
2023/05/24 05:38:47;;;;;;;19.13;2.83;;;;;;;-142.75;100.00;77798.81;5025224;28;20381;-64
2023/05/24 05:41:12;;;;;;;11.13;2.95;;;;;;;-142.75;100.00;77794.88;5025152;28;20680;-64
2023/05/24 05:43:38;;;;;;;14.27;2.78;;;;;;;-142.75;100.00;77755.50;5025652;28;20029;-63
2023/05/24 05:46:03;;;;;;;13.93;2.83;;;;;;;-142.75;100.00;77751.56;5007606;28;20037;-64
2023/05/24 05:48:28;;;;;;;16.17;3.35;;;;;;;-142.75;100.00;77735.81;5025097;28;20029;-65
2023/05/24 05:50:54;;;;;;;16.77;2.95;;;;;;;-142.75;100.00;77718.06;5024331;28;20108;-64
2023/05/24 05:53:19;;;;;;;11.38;2.40;;;;;;;-142.75;100.00;77690.50;5024768;28;20403;-65
2023/05/24 05:55:44;;;;;;;18.23;3.33;;;;;;;-142.75;100.00;77684.59;5024829;28;20036;-65
2023/05/24 05:58:10;;;;;;;12.27;3.00;;;;;;;-142.75;100.00;77712.16;5025420;28;20517;-65
2023/05/24 06:00:36;;;;;;;12.98;2.95;;;;;;;-142.75;100.00;77718.06;5024742;28;20021;-64
2023/05/24 06:03:01;;;;;;;9.57;2.63;;;;;;;-142.75;100.00;77716.09;5025101;28;20422;-65
2023/05/24 06:05:26;;;;;;;11.27;3.22;;;;;;;-142.75;100.00;77712.16;5025192;28;20021;-64
2023/05/24 06:07:52;;;;;;;11.25;2.88;;;;;;;-142.75;100.00;77743.69;5024548;28;20413;-64
2023/05/24 06:10:17;;;;;;;12.55;2.97;;;;;;;-142.75;100.00;77745.66;5024372;28;20084;-64
2023/05/24 06:12:42;;;;;;;15.13;2.95;;;;;;;-142.75;100.00;77735.81;5028056;28;20104;-64
2023/05/24 06:15:08;;;;;;;14.93;2.72;;;;;;;-142.75;100.00;77718.06;5025771;28;20025;-64
2023/05/24 06:17:35;;;;;;;13.40;2.60;;;;;;;-142.75;100.00;77708.22;5027213;28;20029;-65
2023/05/24 06:20:08;;;;;;;15.13;2.58;;;;;;;-142.75;100.00;77718.06;5027944;28;20738;-64
2023/05/24 06:22:35;;;;;;;10.02;2.70;;;;;;;-142.75;100.00;77720.03;5026730;28;20061;-64
2023/05/24 06:25:01;;;;;;;12.38;2.70;;;;;;;-142.75;100.00;77749.59;5028251;28;20095;-64
2023/05/24 06:27:26;;;;;;;12.57;2.40;;;;;;;-142.75;100.00;77779.13;5028274;28;21703;-64
2023/05/24 06:29:51;;;;;;;13.88;2.55;;;;;;;-142.75;100.00;77787.00;5027552;28;20100;-64
2023/05/24 06:32:17;;;;;;;8.27;1.88;;;;;;;-142.75;100.00;77783.06;5028429;28;20025;-64
2023/05/24 06:34:42;;;;;;;11.88;2.33;;;;;;;-142.75;100.00;77771.25;5028149;28;20056;-64
2023/05/24 06:37:09;;;;;;;6.55;1.90;;;;;;;-142.75;100.00;77755.50;5027719;28;20025;-64
2023/05/24 06:39:35;;;;;;;16.10;3.25;;;;;;;-142.75;100.00;77749.59;5027927;28;20470;-64
2023/05/24 06:42:00;;;;;;;14.07;2.38;;;;;;;-142.75;100.00;77755.50;5028109;28;20026;-65
2023/05/24 06:44:32;;;;;;;8.68;2.05;;;;;;;-142.75;100.00;77729.88;5028213;28;20059;-65
2023/05/24 06:46:58;;;;;;;18.52;3.15;;;;;;;-142.75;100.00;77708.22;5028209;28;20025;-64
2023/05/24 06:49:23;;;;;;;16.70;3.08;;;;;;;-142.75;100.00;77725.97;5027665;28;20044;-64
2023/05/24 06:51:48;;;;;;;15.13;3.75;;;;;;;-142.75;100.00;77731.88;5028182;28;20474;-64
2023/05/24 06:54:14;;;;;;;15.02;2.90;;;;;;;-142.75;100.00;77722.00;5026991;28;20033;-64
2023/05/24 06:56:40;;;;;;;14.63;3.03;;;;;;;-142.75;100.00;77710.19;5028423;28;20072;-64
2023/05/24 06:59:05;;;;;;;15.80;2.70;;;;;;;-142.75;100.00;77718.06;5027017;28;20079;-64
2023/05/24 07:01:31;;;;;;;17.30;3.38;;;;;;;-142.75;100.00;77700.34;5027968;28;20025;-64
2023/05/24 07:03:57;;;;;;;10.25;3.08;;;;;;;-142.75;100.00;77696.41;5027393;28;20031;-63
2023/05/24 07:06:23;;;;;;;12.95;3.50;;;;;;;-142.75;100.00;77674.75;5027648;28;20075;-65
2023/05/24 07:08:49;;;;;;;14.52;3.25;;;;;;;-142.75;100.00;77668.84;5027333;28;20025;-63
2023/05/24 07:11:14;;;;;;;10.73;3.03;;;;;;;-142.75;100.00;77653.09;5025816;28;20055;-65
2023/05/24 07:13:40;;;;;;;20.25;3.05;;;;;;;-142.75;100.00;77641.28;5027573;28;20401;-65
2023/05/24 07:16:05;;;;;;;14.63;3.00;;;;;;;-142.75;100.00;77629.47;5027098;28;20100;-64
2023/05/24 07:18:31;;;;;;;12.30;3.08;;;;;;;-142.75;100.00;77629.47;5027772;28;20025;-64
2023/05/24 07:20:56;;;;;;;14.77;3.13;;;;;;;-142.75;100.00;77607.81;5026797;28;20502;-64
2023/05/24 07:23:22;;;;;;;9.25;2.42;;;;;;;-142.75;100.00;77609.78;5026284;28;20028;-66
2023/05/24 07:25:48;;;;;;;7.50;2.30;;;;;;;-142.75;100.00;77613.72;5026724;28;20021;-65
2023/05/24 07:28:14;;;;;;;9.13;2.15;;;;;;;-142.75;100.00;77609.78;5027124;28;20021;-66
2023/05/24 07:30:39;;;;;;;13.93;2.50;;;;;;;-142.75;100.00;77617.66;5026704;28;20021;-66
2023/05/24 07:33:05;;;;;;;10.50;2.88;;;;;;;-142.75;100.00;77609.78;5026649;28;20478;-66
2023/05/24 07:35:31;;;;;;;11.38;2.80;;;;;;;-142.75;100.00;77617.66;5026495;28;20449;-65
2023/05/24 07:37:56;;;;;;;15.02;3.50;;;;;;;-142.75;100.00;77617.66;5026792;28;20032;-65
2023/05/24 07:40:22;;;;;;;10.55;2.65;;;;;;;-142.75;100.00;77605.84;5024755;28;20438;-66
2023/05/24 07:42:48;;;;;;;12.65;2.67;;;;;;;-142.75;100.00;77617.66;5027054;28;20030;-66
2023/05/24 07:45:13;;;;;;;10.40;2.70;;;;;;;-142.75;100.00;77609.78;5027134;28;20035;-66
2023/05/24 07:47:39;;;;;;;8.15;2.05;;;;;;;-142.75;100.00;77586.16;5026930;28;20033;-65
2023/05/24 07:50:05;;;;;;;9.82;1.90;;;;;;;-142.75;100.00;77582.22;5026443;28;20032;-66
2023/05/24 07:52:31;;;;;;;8.50;1.92;;;;;;;-142.75;100.00;77582.22;5027150;28;20025;-66
2023/05/24 07:54:56;;;;;;;12.70;3.03;;;;;;;-142.75;100.00;77560.56;5027017;28;20040;-66
2023/05/24 07:57:22;;;;;;;10.43;2.75;;;;;;;-142.75;100.00;77529.06;5009160;28;20526;-66
2023/05/24 07:59:48;;;;;;;15.70;2.83;;;;;;;-142.75;100.00;77527.09;5026417;28;20017;-64
2023/05/24 08:02:14;;;;;;;13.45;2.97;;;;;;;-142.75;100.00;77534.97;5025848;28;20566;-66
2023/05/24 08:04:39;;;;;;;12.20;3.15;;;;;;;-142.75;100.00;77527.09;5026170;28;20025;-65
2023/05/24 08:07:05;;;;;;;9.23;2.10;;;;;;;-142.75;100.00;77511.34;5026181;28;20025;-66
2023/05/24 08:09:35;;;;;;;12.05;2.33;;;;;;;-142.75;100.00;77521.19;5026049;28;20017;-66
2023/05/24 08:12:01;;;;;;;8.32;2.17;;;;;;;-142.75;100.00;77511.34;5025708;28;20072;-66
2023/05/24 08:14:26;;;;;;;10.50;2.03;;;;;;;-142.75;100.00;77507.41;5025677;28;20494;-66
2023/05/24 08:16:52;;;;;;;9.18;2.38;;;;;;;-142.75;100.00;77466.03;5026096;28;20024;-66
2023/05/24 08:19:18;;;;;;;7.53;1.77;;;;;;;-142.75;100.00;77448.34;5025377;28;20028;-66
2023/05/24 08:21:43;;;;;;;10.23;1.92;;;;;;;-142.75;100.00;77397.13;5025851;28;20485;-66
2023/05/24 08:24:08;;;;;;;12.82;2.25;;;;;;;-142.75;100.00;77365.63;5026261;28;20104;-66
2023/05/24 08:26:34;;;;;;;8.88;2.17;;;;;;;-142.75;100.00;77338.06;5026267;28;20103;-66
2023/05/24 08:28:59;;;;;;;12.20;2.05;;;;;;;-142.75;100.00;77310.50;5025553;28;20014;-65
2023/05/24 08:31:25;;;;;;;10.05;1.77;;;;;;;-142.75;100.00;77273.09;5025869;28;20104;-66
2023/05/24 08:33:50;;;;;;;10.65;1.88;;;;;;;-142.75;100.00;77282.94;5025664;28;20017;-65
2023/05/24 08:36:16;;;;;;;9.10;2.03;;;;;;;-142.75;100.00;77292.78;5025840;28;20471;-66
2023/05/24 08:38:41;;;;;;;7.60;1.63;;;;;;;-142.75;100.00;77253.41;5025193;28;20024;-65
2023/05/24 08:41:10;;;;;;;10.15;2.47;;;;;;;-142.75;98.97;77267.19;5025124;28;20405;-65
2023/05/24 08:43:36;;;;;;;14.10;2.67;;;;;;;-142.75;100.00;77265.22;5024916;28;20025;-67
2023/05/24 08:46:02;;;;;;;10.50;2.22;;;;;;;-142.75;100.00;77219.94;5025020;28;20029;-65
2023/05/24 08:48:28;;;;;;;10.95;2.28;;;;;;;-142.75;96.69;77247.50;5025629;28;20048;-65
2023/05/24 08:50:54;;;;;;;8.70;1.98;;;;;;;-142.75;95.16;77255.38;5024699;28;20498;-66
2023/05/24 08:53:21;;;;;;;11.10;2.00;;;;;;;-142.75;95.94;77235.69;5008172;28;20029;-65
2023/05/24 08:55:48;;;;;;;12.43;2.60;;;;;;;-142.75;93.73;77223.88;5025536;28;20100;-64
2023/05/24 08:58:15;;;;;;;8.50;1.98;;;;;;;-142.75;90.31;77168.75;5024485;28;20032;-64
2023/05/24 09:00:41;;;;;;;12.07;1.92;;;;;;;-142.75;90.50;77147.09;5025369;28;20486;-64
2023/05/24 09:03:06;;;;;;;11.10;2.10;;;;;;;-142.75;91.76;77105.75;5023917;28;20025;-64
2023/05/24 09:05:32;;;;;;;8.75;1.90;;;;;;;-142.75;90.20;77105.75;5025689;28;20032;-64
2023/05/24 09:08:00;;;;;;;7.38;1.85;;;;;;;-142.75;92.00;77034.88;5025622;28;21361;-64
2023/05/24 09:10:27;;;;;;;12.57;2.45;;;;;;;-142.75;85.69;77062.44;5024703;28;20505;-64
2023/05/24 09:13:00;;;;;;;10.88;2.08;;;;;;;-142.75;85.56;77076.22;5025367;28;20037;-65
2023/05/24 09:15:25;;;;;;;13.15;1.98;;;;;;;-142.75;86.36;77121.50;5025845;28;20540;-64
2023/05/24 09:17:51;;;;;;;10.82;2.38;;;;;;;-142.75;87.86;77125.44;5008183;28;20025;-65
2023/05/24 09:20:17;;;;;;;13.23;2.47;;;;;;;-142.75;87.95;77200.25;5024793;28;20028;-64
2023/05/24 09:22:44;;;;;;;7.85;2.03;;;;;;;-142.75;91.68;77190.41;5024522;28;20025;-64
2023/05/24 09:25:13;;;;;;;7.63;1.90;;;;;;;-142.75;91.89;77137.25;5024878;28;20112;-64
2023/05/24 09:27:38;;;;;;;14.55;2.72;;;;;;;-142.75;87.88;77156.94;5024640;28;20033;-64
2023/05/24 09:30:08;;;;;;;6.85;2.28;;;;;;;-142.75;88.67;77208.13;5025200;28;20029;-65
2023/05/24 09:32:34;;;;;;;10.30;1.70;;;;;;;-142.75;88.18;77194.34;5024811;28;20493;-65
2023/05/24 09:34:59;;;;;;;7.10;1.83;;;;;;;-142.75;88.74;77206.16;5025079;28;20025;-64
2023/05/24 09:37:27;;;;;;;11.43;1.85;;;;;;;-142.75;87.82;77168.75;5025364;28;20025;-65
2023/05/24 09:39:53;;;;;;;11.27;1.65;;;;;;;-142.75;89.00;77105.75;5024550;28;20075;-65
2023/05/24 09:42:25;;;;;;;14.35;2.22;;;;;;;-142.75;83.79;77070.31;5025163;28;20068;-65
2023/05/24 09:45:06;;;;;;;13.43;2.05;;;;;;;-142.75;80.54;77027.00;5025573;28;20025;-64
2023/05/24 09:47:33;;;;;;;9.70;2.10;;;;;;;-142.75;81.35;76983.69;5029316;28;20021;-65
2023/05/24 09:50:00;;;;;;;11.52;1.90;;;;;;;-142.75;81.41;77001.41;5028640;28;20244;-64
2023/05/24 09:52:26;;;;;;;11.65;2.05;;;;;;;-142.75;82.79;77042.75;5027949;28;20041;-64
2023/05/24 09:54:52;;;;;;;6.93;1.85;;;;;;;-142.75;84.87;77086.06;5029259;28;20025;-64
2023/05/24 09:57:17;;;;;;;9.27;2.42;;;;;;;-142.75;84.99;77078.19;5028617;28;20022;-64
2023/05/24 09:59:43;;;;;;;9.77;1.80;;;;;;;-142.75;85.03;77103.78;5029065;28;20124;-64
2023/05/24 10:02:10;;;;;;;11.60;2.10;;;;;;;-142.75;84.93;77135.28;5011122;28;20624;-63
2023/05/24 10:04:37;;;;;;;11.18;1.80;;;;;;;-142.75;85.01;77084.09;5027977;28;20033;-64
2023/05/24 10:07:04;;;;;;;12.20;1.85;;;;;;;-142.75;83.67;77005.34;5028620;28;20095;-65
2023/05/24 10:09:32;;;;;;;10.35;2.03;;;;;;;-142.75;84.11;76983.69;5010291;28;20029;-63
2023/05/24 10:12:05;;;;;;;12.25;2.67;;;;;;;-142.75;81.72;76956.13;5028418;28;20578;-63
2023/05/24 10:14:32;;;;;;;8.77;2.28;;;;;;;-142.75;81.34;76971.88;5028578;28;20087;-63
2023/05/24 10:16:58;;;;;;;8.95;2.42;;;;;;;-142.75;80.99;76944.31;5029682;28;20014;-64
2023/05/24 10:19:24;;;;;;;7.35;1.70;;;;;;;-142.75;79.85;76936.44;5028587;28;20045;-63
2023/05/24 10:21:52;;;;;;;11.75;1.70;;;;;;;-142.75;79.78;76942.34;5029133;28;20121;-64
2023/05/24 10:24:20;;;;;;;14.40;2.10;;;;;;;-142.75;80.48;76977.78;5028600;28;20056;-64
2023/05/24 10:26:48;;;;;;;8.48;1.70;;;;;;;-142.75;79.73;76962.03;5027364;28;20022;-64
2023/05/24 10:29:26;;;;;;;13.98;2.03;;;;;;;-142.75;79.52;76938.41;5028116;28;20191;-63
2023/05/24 10:31:52;;;;;;;11.93;2.38;;;;;;;-142.75;78.20;76930.53;5028584;28;20017;-64
2023/05/24 10:34:19;;;;;;;8.85;1.77;;;;;;;-142.75;79.07;76944.31;5027869;28;20101;-63
2023/05/24 10:36:45;;;;;;;8.40;2.08;;;;;;;-142.75;77.08;76965.97;5027957;28;20026;-64
2023/05/24 10:39:11;;;;;;;6.28;1.60;;;;;;;-142.75;76.97;76995.50;5027488;28;20029;-63
2023/05/24 10:41:40;;;;;;;8.52;1.75;;;;;;;-142.75;75.86;76950.22;5028319;28;20120;-62
2023/05/24 10:44:11;;;;;;;10.35;2.30;;;;;;;-142.75;75.23;76952.19;5026616;28;20554;-64
2023/05/24 10:47:24;;;;;;;6.75;2.00;;;;;;;-142.75;76.71;76924.63;5026768;28;20025;-64
2023/05/24 10:49:53;;;;;;;6.70;1.80;;;;;;;-142.75;75.27;76863.59;5027224;28;20091;-64
2023/05/24 10:52:19;;;;;;;11.00;1.90;;;;;;;-142.75;73.43;76895.09;5028366;28;20060;-64
2023/05/24 10:55:04;;;;;;;7.22;1.60;;;;;;;-142.75;76.42;76958.09;5028586;28;20137;-64
2023/05/24 10:57:31;;;;;;;6.38;1.95;;;;;;;-142.75;73.74;76920.69;5027236;28;20556;-63
2023/05/24 10:59:57;;;;;;;6.03;2.13;;;;;;;-142.75;74.54;76885.25;5028394;28;20020;-62
2023/05/24 11:02:27;;;;;;;10.80;2.35;;;;;;;-142.75;75.25;76883.28;5028120;28;20029;-65
2023/05/24 11:04:55;;;;;;;4.97;1.50;;;;;;;-142.75;75.28;76910.84;5027987;28;20017;-65
2023/05/24 11:07:20;;;;;;;7.20;2.17;;;;;;;-142.75;74.92;76985.66;5027308;28;20026;-65